Aérodrome :
LOGIN :

S'inscrire | Disclaimer

   EN    FR    IT 

 










Légende :    VFR   VFR Marginal   IFR   IFR Intensif   IFR Très Intensif
Visi : 
Plafond : 
>= 8 km
>= 3000ft
5 à 8 km
1000 à 3000 ft
1500m à 5 km
500 à 1000 ft
800 à 1500m
200 à 500 ft
< 800m
< 200 ft
Symboles :   Orages  Brouillard  Fortes neiges  Fortes précipitations  Vent > 20 kt
SIGMETs :   Divers  Orages  Givrage  Turbulence  Onde Orograph.  Cendres Volcan.







- Altitude de l'aérodrome : 348 ft
- Code IATA : STN
- Voir les cartes d'approche


EGSS - London Stansted

DERNIER METAR :
  • 210050Z AUTO 16012KT 8000 SCT007 BKN010 OVC017 12/12 Q1003

METARs EXPIRÉS :
  • 210020Z AUTO 17012KT 8000 -RA BKN018 BKN026 13/11 Q1004
  • 202350Z AUTO 16012KT 9999 FEW022 SCT041 12/10 Q1004
  • 202320Z AUTO 16011KT 9999 -RA SCT027/// BKN037/// //////TCU 12/10 Q1005
  • 202250Z AUTO 16011KT 9999 BKN026/// BKN041/// //////TCU 12/09 Q1005
  • 202220Z AUTO 16011KT 9999 SCT049 12/09 Q1006
  • 202150Z AUTO 16012KT 9999 NCD 12/09 Q1006

TAF TAF EGSS
Valide du 21 à 00h jusqu'au 22 à 06h UTC


202256Z 2100/2206 18012KT 9999 SCT025
TEMPO 2100/2103 7000 RA BKN006
PROB30
TEMPO 2100/2103 20015G25KT 4000 RADZ
PROB30
TEMPO 2103/2116 7000 SHRA
BECMG 2108/2110 20018G28KT
PROB30
TEMPO 2109/2119 21023G38KT
TEMPO 2116/2119 7000 SHRA BKN014
BECMG 2119/2121 24013KT
PROB30
TEMPO 2119/2206 25016G26KT 7000 SHRA
ATIS : +44 1279 669 325
Pas de NOTAMs connus pour ce terrain.
1 SIGMET publié pour la FIR London (EGTT) :
 
Turbulence forte
EGTT SIGMET 08 VALID 202200/210200 EGRR
EGTT LONDON FIR SEV TURB FCST W OF LINE N5132 W00700 - N4902 W00700 SFC/FL060 MOV E 20KT INTSF=



MET'MAP, la Météo Aéronautique d'un coup d'oeil ! - Copyright ORBIFLY Décembre 2007 - Disclaimer

ORBIFLY MET'MAP TEAM :

Programmation & Développement : Alexandra Zaïnal
Conception & Développement : Baudouin d'Aumeries
Co-Programmation & Développement : Marc-Olivier Méhu
Soutien technique & logistique : Manuel Goepfert

Contact : metmap@orbifly.com




SOURCES & CREDITS :

   NOAA